createdAt,value
2023-02-22T00:01:51.233Z,3.60
2023-02-22T00:04:21.421Z,3.60
2023-02-22T00:06:50.859Z,3.60
2023-02-22T00:09:21.501Z,3.70
2023-02-22T00:11:50.132Z,3.70
2023-02-22T00:14:20.483Z,3.80
2023-02-22T00:16:51.698Z,3.70
2023-02-22T00:19:19.816Z,3.70
2023-02-22T00:21:54.053Z,3.60
2023-02-22T00:24:25.013Z,3.60
2023-02-22T00:26:55.660Z,3.40
2023-02-22T00:29:24.455Z,3.20
2023-02-22T00:31:54.325Z,3.30
2023-02-22T00:34:23.615Z,3.20
2023-02-22T00:36:51.800Z,3.20
2023-02-22T00:39:20.261Z,3.20
2023-02-22T00:41:49.818Z,3.20
2023-02-22T00:44:18.020Z,3.20
2023-02-22T00:46:46.027Z,3.30
2023-02-22T00:49:15.499Z,3.30
2023-02-22T00:51:43.714Z,3.30
2023-02-22T00:54:22.801Z,3.20
2023-02-22T00:57:02.014Z,3.10
2023-02-22T00:59:31.451Z,3.10
2023-02-22T01:01:59.728Z,3.00
2023-02-22T01:04:29.747Z,3.10
2023-02-22T01:07:00.564Z,3.00
2023-02-22T01:09:29.154Z,3.10
2023-02-22T01:11:58.122Z,3.10
2023-02-22T01:14:28.058Z,3.10
2023-02-22T01:16:57.075Z,3.20
2023-02-22T01:19:25.468Z,3.20
2023-02-22T01:21:55.542Z,3.20
2023-02-22T01:24:23.657Z,3.10
2023-02-22T01:26:53.625Z,3.10
2023-02-22T01:29:22.519Z,3.10
2023-02-22T01:31:55.639Z,3.10
2023-02-22T01:34:24.665Z,3.10
2023-02-22T01:36:54.059Z,3.00
2023-02-22T01:39:22.108Z,3.00
2023-02-22T01:41:50.291Z,3.00
2023-02-22T01:44:21.088Z,3.00
2023-02-22T01:46:49.265Z,2.90
2023-02-22T01:49:17.770Z,2.90
2023-02-22T01:51:49.938Z,2.90
2023-02-22T01:54:22.693Z,2.90
2023-02-22T01:56:55.511Z,2.90
2023-02-22T01:59:24.256Z,2.90
2023-02-22T02:01:52.623Z,2.80
2023-02-22T02:04:25.706Z,2.90
2023-02-22T02:07:11.752Z,2.80
2023-02-22T02:09:47.628Z,2.90
2023-02-22T02:12:18.615Z,2.80
2023-02-22T02:14:46.730Z,2.80
2023-02-22T02:17:17.733Z,2.80
2023-02-22T02:19:54.738Z,2.90
2023-02-22T02:22:36.948Z,2.80
2023-02-22T02:25:37.838Z,2.90
2023-02-22T02:28:45.662Z,2.80
2023-02-22T02:31:30.114Z,2.90
2023-02-22T02:34:04.080Z,2.90
2023-02-22T02:36:36.058Z,2.90
2023-02-22T02:39:10.322Z,2.80
2023-02-22T02:41:43.972Z,2.80
2023-02-22T02:44:17.068Z,2.80
2023-02-22T02:46:51.410Z,2.70
2023-02-22T02:49:26.743Z,2.60
2023-02-22T02:51:57.325Z,2.60
2023-02-22T02:54:26.061Z,2.60
2023-02-22T02:56:54.408Z,2.70
2023-02-22T02:59:27.779Z,2.60
2023-02-22T03:08:47.586Z,2.50
2023-02-22T03:11:20.450Z,2.50
2023-02-22T03:13:57.918Z,2.50
2023-02-22T03:16:34.909Z,2.40
2023-02-22T03:19:12.099Z,2.40
2023-02-22T03:21:52.633Z,2.50
2023-02-22T03:24:25.608Z,2.50
2023-02-22T03:27:00.114Z,2.40
2023-02-22T03:29:36.718Z,2.30
2023-02-22T03:32:08.995Z,2.40
2023-02-22T03:35:06.400Z,2.40
2023-02-22T03:38:15.814Z,2.40
2023-02-22T03:40:49.792Z,2.50
2023-02-22T03:43:22.810Z,2.20
2023-02-22T03:45:53.149Z,2.30
2023-02-22T03:48:26.852Z,2.30
2023-02-22T03:50:55.092Z,2.30
2023-02-22T03:53:25.443Z,2.10
2023-02-22T03:55:58.508Z,2.20
2023-02-22T03:58:32.377Z,2.20
2023-02-22T04:01:01.594Z,2.20
2023-02-22T04:03:31.626Z,2.20
2023-02-22T04:06:02.962Z,2.20
2023-02-22T04:08:31.236Z,2.20
2023-02-22T04:11:01.442Z,2.20
2023-02-22T04:13:30.003Z,2.10
2023-02-22T04:15:58.209Z,2.10
2023-02-22T04:18:29.552Z,2.10
2023-02-22T04:20:58.816Z,2.10
2023-02-22T04:23:27.001Z,2.10
2023-02-22T04:25:56.417Z,2.10
2023-02-22T04:28:27.506Z,2.20
2023-02-22T04:30:55.611Z,2.20
2023-02-22T04:33:24.340Z,2.20
2023-02-22T04:35:53.704Z,2.30
2023-02-22T04:38:22.843Z,2.10
2023-02-22T04:40:50.898Z,2.20
2023-02-22T04:43:19.546Z,2.30
2023-02-22T04:45:50.355Z,2.40
2023-02-22T04:48:18.913Z,2.40
2023-02-22T04:50:48.806Z,2.40
2023-02-22T04:53:17.237Z,2.50
2023-02-22T04:55:47.780Z,2.40
2023-02-22T04:58:35.773Z,2.40
2023-02-22T05:01:15.726Z,2.50
2023-02-22T05:03:46.205Z,2.40
2023-02-22T05:06:15.495Z,2.40
2023-02-22T05:08:45.864Z,2.40
2023-02-22T05:11:28.049Z,2.30
2023-02-22T05:14:04.449Z,2.20
2023-02-22T05:16:36.840Z,2.10
2023-02-22T05:19:05.762Z,2.20
2023-02-22T05:21:36.272Z,1.90
2023-02-22T05:24:12.154Z,1.80
2023-02-22T05:26:51.322Z,1.80
2023-02-22T05:29:21.806Z,1.90
2023-02-22T05:31:51.799Z,1.70
2023-02-22T05:34:20.621Z,1.70
2023-02-22T05:36:50.262Z,1.80
2023-02-22T05:39:18.883Z,1.80
2023-02-22T05:41:47.113Z,1.90
2023-02-22T05:44:15.345Z,1.90
2023-02-22T05:46:46.849Z,1.80
2023-02-22T05:49:17.335Z,1.70
2023-02-22T05:51:47.251Z,1.80
2023-02-22T05:57:43.474Z,1.80
2023-02-22T06:00:28.734Z,1.90
2023-02-22T06:02:57.838Z,1.90
2023-02-22T06:05:28.076Z,1.80
2023-02-22T06:11:37.605Z,1.90
2023-02-22T06:17:21.353Z,1.90
2023-02-22T06:19:59.421Z,2.00
2023-02-22T06:22:43.962Z,1.90
2023-02-22T06:25:24.266Z,1.90
2023-02-22T06:27:54.371Z,1.90
2023-02-22T06:37:03.833Z,1.80
2023-02-22T06:39:43.208Z,1.80
2023-02-22T06:42:19.166Z,2.00
2023-02-22T06:45:11.293Z,1.90
2023-02-22T06:51:17.945Z,2.00
2023-02-22T06:53:47.536Z,2.00
2023-02-22T06:56:19.109Z,2.00
2023-02-22T06:58:49.693Z,2.00
2023-02-22T07:01:24.766Z,2.00
2023-02-22T07:04:09.338Z,2.00
2023-02-22T07:06:41.757Z,1.90
2023-02-22T07:09:11.194Z,1.90
2023-02-22T07:12:02.727Z,2.10
2023-02-22T07:14:42.820Z,2.00
2023-02-22T07:17:17.929Z,2.10
2023-02-22T07:19:46.104Z,2.20
2023-02-22T07:22:17.711Z,2.10
2023-02-22T07:24:46.167Z,1.90
2023-02-22T07:28:01.440Z,1.70
2023-02-22T07:30:34.605Z,2.00
2023-02-22T07:33:05.545Z,1.90
2023-02-22T07:35:38.538Z,1.90
2023-02-22T07:38:33.070Z,1.80
2023-02-22T07:41:01.750Z,1.90
2023-02-22T07:43:31.990Z,1.90
2023-02-22T07:46:04.040Z,2.00
2023-02-22T07:48:33.797Z,2.00
2023-02-22T07:51:02.355Z,2.10
2023-02-22T07:53:37.400Z,2.10
2023-02-22T07:56:11.700Z,2.10
2023-02-22T07:58:56.498Z,2.40
2023-02-22T08:01:33.071Z,2.30
2023-02-22T08:04:05.439Z,2.30
2023-02-22T08:06:34.852Z,2.30
2023-02-22T08:15:53.088Z,2.50
2023-02-22T08:21:47.347Z,2.60
2023-02-22T08:24:15.906Z,2.40
2023-02-22T08:26:46.678Z,2.40
2023-02-22T08:29:27.306Z,2.50
2023-02-22T08:32:00.802Z,2.70
2023-02-22T08:34:41.244Z,2.70
2023-02-22T08:37:11.221Z,2.70
2023-02-22T08:39:40.856Z,2.70
2023-02-22T08:42:13.114Z,2.90
2023-02-22T08:44:44.364Z,3.00
2023-02-22T08:47:39.172Z,3.20
2023-02-22T08:51:00.304Z,3.00
2023-02-22T08:54:29.169Z,2.90
2023-02-22T08:57:00.761Z,3.10
2023-02-22T08:59:31.589Z,3.30
2023-02-22T09:05:02.406Z,3.60
2023-02-22T09:07:43.267Z,3.60
2023-02-22T09:10:35.304Z,3.60
2023-02-22T09:13:04.237Z,3.70
2023-02-22T09:15:33.218Z,3.80
2023-02-22T09:18:25.610Z,4.00
2023-02-22T09:21:00.835Z,4.00
2023-02-22T09:23:30.019Z,4.10
2023-02-22T09:26:18.357Z,4.20
2023-02-22T09:28:53.320Z,4.30
2023-02-22T09:31:22.320Z,4.20
2023-02-22T09:33:56.075Z,4.40
2023-02-22T09:36:29.445Z,4.70
2023-02-22T09:38:59.499Z,4.80
2023-02-22T09:41:57.986Z,4.80
2023-02-22T09:44:51.883Z,4.80
2023-02-22T09:47:32.413Z,4.90
2023-02-22T09:50:05.788Z,4.90
2023-02-22T09:52:42.592Z,4.60
2023-02-22T09:55:43.027Z,4.70
2023-02-22T09:58:23.347Z,5.00
2023-02-22T10:01:05.185Z,5.20
2023-02-22T10:03:50.218Z,4.70
2023-02-22T10:06:23.912Z,5.00
2023-02-22T10:09:07.934Z,5.20
2023-02-22T10:11:53.715Z,4.50
2023-02-22T10:15:06.344Z,4.80
2023-02-22T10:17:50.716Z,5.00
2023-02-22T10:20:50.018Z,5.10
2023-02-22T10:23:24.474Z,5.30
2023-02-22T10:26:25.983Z,5.20
2023-02-22T10:29:12.176Z,5.30
2023-02-22T10:31:47.757Z,5.50
2023-02-22T10:34:24.458Z,5.00
2023-02-22T10:36:58.585Z,5.10
2023-02-22T10:39:32.056Z,5.20
2023-02-22T10:42:12.317Z,5.30
2023-02-22T10:44:52.132Z,5.60
2023-02-22T10:47:35.775Z,5.60
2023-02-22T10:56:25.989Z,6.30
2023-02-22T10:59:08.105Z,6.40
2023-02-22T11:01:44.898Z,6.40
2023-02-22T11:04:27.887Z,6.40
2023-02-22T11:07:29.348Z,6.60
2023-02-22T11:10:00.180Z,6.60
2023-02-22T11:12:35.261Z,6.80
2023-02-22T11:15:36.203Z,6.90
2023-02-22T11:18:10.207Z,7.10
2023-02-22T11:20:41.324Z,7.30
2023-02-22T11:23:13.369Z,7.70
2023-02-22T11:25:45.014Z,7.90
2023-02-22T11:28:34.497Z,7.70
2023-02-22T11:31:54.683Z,7.90
2023-02-22T11:34:35.246Z,8.20
2023-02-22T11:37:34.177Z,8.30
2023-02-22T11:40:21.975Z,8.40
2023-02-22T11:43:34.179Z,8.60
2023-02-22T11:46:08.895Z,8.80
2023-02-22T11:48:45.549Z,8.70
2023-02-22T11:51:27.449Z,8.70
2023-02-22T11:54:14.192Z,8.70
2023-02-22T11:56:46.432Z,8.90
2023-02-22T12:18:00.112Z,9.80
2023-02-22T12:20:41.499Z,9.70
2023-02-22T12:23:34.360Z,10.10
2023-02-22T12:26:16.288Z,10.50
2023-02-22T12:29:08.201Z,10.40
2023-02-22T12:31:58.649Z,10.50
2023-02-22T12:38:22.334Z,10.70
2023-02-22T12:41:31.304Z,11.10
2023-02-22T12:44:20.822Z,11.90
2023-02-22T12:46:53.330Z,12.00
2023-02-22T12:49:29.816Z,12.00
2023-02-22T12:52:21.805Z,12.20
2023-02-22T12:59:03.512Z,12.30
2023-02-22T13:02:16.592Z,12.20
2023-02-22T13:04:45.121Z,12.40
2023-02-22T13:07:27.332Z,12.50
2023-02-22T13:11:05.437Z,12.50
2023-02-22T13:17:42.202Z,12.30
2023-02-22T13:20:20.429Z,12.30
2023-02-22T13:22:54.533Z,12.40
2023-02-22T13:25:28.825Z,12.50
2023-02-22T13:28:08.154Z,12.70
2023-02-22T13:30:40.197Z,12.80
2023-02-22T13:33:28.942Z,12.80
2023-02-22T13:36:13.528Z,12.90
2023-02-22T13:39:18.341Z,13.00
2023-02-22T13:42:01.244Z,13.20
2023-02-22T13:45:17.489Z,13.20
2023-02-22T13:48:15.886Z,13.40
2023-02-22T13:51:14.271Z,13.50
2023-02-22T13:53:58.222Z,13.50
2023-02-22T13:56:28.101Z,13.50
2023-02-22T13:58:59.073Z,13.30
2023-02-22T14:01:46.101Z,13.20
2023-02-22T14:04:34.886Z,13.20
2023-02-22T14:10:48.520Z,13.40
2023-02-22T14:13:18.968Z,13.60
2023-02-22T14:16:26.290Z,13.70
2023-02-22T14:22:29.229Z,13.60
2023-02-22T14:24:58.422Z,13.60
2023-02-22T14:27:53.872Z,13.70
2023-02-22T14:30:43.935Z,13.70
2023-02-22T14:40:13.158Z,13.70
2023-02-22T14:42:46.752Z,13.50
2023-02-22T14:45:23.482Z,13.20
2023-02-22T14:48:34.866Z,13.20
2023-02-22T14:51:21.389Z,13.20
2023-02-22T14:53:55.645Z,13.20
2023-02-22T14:56:28.610Z,13.20
2023-02-22T14:59:52.588Z,13.20
2023-02-22T15:09:28.516Z,13.00
2023-02-22T15:12:45.113Z,13.00
2023-02-22T15:22:04.132Z,12.80
2023-02-22T15:24:35.775Z,12.80
2023-02-22T15:30:23.529Z,12.70
2023-02-22T15:33:03.669Z,12.60
2023-02-22T15:36:02.168Z,12.60
2023-02-22T15:38:32.585Z,12.60
2023-02-22T15:41:10.145Z,12.50
2023-02-22T15:43:41.475Z,12.50
2023-02-22T15:46:12.761Z,12.50
2023-02-22T15:48:42.731Z,12.40
2023-02-22T15:51:19.916Z,12.40
2023-02-22T15:53:50.615Z,12.40
2023-02-22T15:56:24.914Z,12.40
2023-02-22T15:58:59.695Z,12.30
2023-02-22T16:01:28.368Z,12.30
2023-02-22T16:03:59.606Z,12.30
2023-02-22T16:06:36.018Z,12.20
2023-02-22T16:09:12.522Z,12.30
2023-02-22T16:11:45.624Z,12.20
2023-02-22T16:15:12.523Z,12.10
2023-02-22T16:18:01.925Z,11.90
2023-02-22T16:20:39.080Z,11.80
2023-02-22T16:23:40.066Z,11.80
2023-02-22T16:26:42.080Z,11.80
2023-02-22T16:29:47.774Z,11.80
2023-02-22T16:39:41.711Z,11.40
2023-02-22T16:42:26.946Z,11.40
2023-02-22T16:45:37.317Z,11.30
2023-02-22T16:51:28.933Z,11.20
2023-02-22T16:53:57.601Z,11.10
2023-02-22T16:56:42.984Z,11.00
2023-02-22T17:03:04.402Z,10.90
2023-02-22T17:05:36.933Z,10.90
2023-02-22T17:08:17.864Z,10.90
2023-02-22T17:10:47.985Z,10.80
2023-02-22T17:13:23.765Z,10.80
2023-02-22T17:15:59.785Z,10.70
2023-02-22T17:18:39.347Z,10.60
2023-02-22T17:25:15.295Z,10.60
2023-02-22T17:27:56.111Z,10.50
2023-02-22T17:30:25.900Z,10.50
2023-02-22T17:33:03.648Z,10.50
2023-02-22T17:36:04.568Z,10.50
2023-02-22T17:38:35.919Z,10.50
2023-02-22T17:41:15.938Z,10.40
2023-02-22T17:44:01.934Z,10.40
2023-02-22T17:46:44.675Z,10.40
2023-02-22T17:49:36.455Z,10.30
2023-02-22T17:55:41.115Z,10.10
2023-02-22T17:58:18.280Z,10.20
2023-02-22T18:00:51.898Z,10.20
2023-02-22T18:03:25.472Z,10.10
2023-02-22T18:12:03.830Z,9.90
2023-02-22T18:14:34.177Z,9.90
2023-02-22T18:17:02.376Z,9.80
2023-02-22T18:19:32.025Z,9.70
2023-02-22T18:22:03.507Z,9.60
2023-02-22T18:24:41.856Z,9.60
2023-02-22T18:29:43.901Z,9.40
2023-02-22T18:32:15.542Z,9.30
2023-02-22T18:34:53.152Z,9.30
2023-02-22T18:37:35.511Z,9.30
2023-02-22T18:40:19.513Z,9.30
2023-02-22T18:42:53.466Z,9.30
2023-02-22T18:45:30.135Z,9.30
2023-02-22T18:47:58.232Z,9.30
2023-02-22T18:57:39.960Z,9.00
2023-02-22T19:03:22.572Z,9.00
2023-02-22T19:05:54.062Z,9.00
2023-02-22T19:08:23.082Z,9.00
2023-02-22T19:10:54.498Z,8.90
2023-02-22T19:13:43.246Z,8.90
2023-02-22T19:16:24.199Z,8.90
2023-02-22T19:19:28.035Z,8.90
2023-02-22T19:21:59.678Z,8.80
2023-02-22T19:24:30.823Z,8.80
2023-02-22T19:30:21.432Z,8.70
2023-02-22T19:33:08.879Z,8.70
2023-02-22T19:35:51.293Z,8.60
2023-02-22T19:38:21.502Z,8.60
2023-02-22T19:40:53.504Z,8.60
2023-02-22T19:43:21.775Z,8.50
2023-02-22T19:45:50.094Z,8.50
2023-02-22T19:48:21.583Z,8.40
2023-02-22T19:51:16.147Z,8.50
2023-02-22T19:53:49.370Z,8.40
2023-02-22T19:56:37.483Z,8.40
2023-02-22T19:59:33.668Z,8.40
2023-02-22T20:02:09.212Z,8.40
2023-02-22T20:04:57.200Z,8.30
2023-02-22T20:07:36.065Z,8.20
2023-02-22T20:13:39.630Z,8.20
2023-02-22T20:16:15.780Z,8.10
2023-02-22T20:18:58.352Z,8.10
2023-02-22T20:21:58.844Z,8.10
2023-02-22T20:24:34.062Z,8.10
2023-02-22T20:28:00.535Z,8.00
2023-02-22T20:30:40.606Z,8.00
2023-02-22T20:36:27.743Z,7.90
2023-02-22T20:38:58.056Z,7.90
2023-02-22T20:41:27.772Z,7.90
2023-02-22T20:43:56.939Z,7.80
2023-02-22T20:46:29.047Z,7.80
2023-02-22T20:48:58.372Z,7.70
2023-02-22T20:51:28.176Z,7.70
2023-02-22T20:54:07.342Z,7.70
2023-02-22T20:56:45.880Z,7.60
2023-02-22T20:59:18.167Z,7.60
2023-02-22T21:01:51.377Z,7.60
2023-02-22T21:04:22.427Z,7.60
2023-02-22T21:06:52.229Z,7.60
2023-02-22T21:09:22.226Z,7.60
2023-02-22T21:11:50.698Z,7.50
2023-02-22T21:14:20.131Z,7.40
2023-02-22T21:16:52.357Z,7.40
2023-02-22T21:19:30.546Z,7.30
2023-02-22T21:22:11.686Z,7.20
2023-02-22T21:24:42.402Z,7.20
2023-02-22T21:27:13.594Z,7.20
2023-02-22T21:29:41.742Z,7.20
2023-02-22T21:32:15.153Z,7.20
2023-02-22T21:34:43.362Z,7.20
2023-02-22T21:37:12.512Z,7.20
2023-02-22T21:39:53.768Z,7.20
2023-02-22T21:42:21.851Z,7.20
2023-02-22T21:44:54.815Z,7.20
2023-02-22T21:47:25.329Z,7.20
2023-02-22T21:49:53.884Z,7.20
2023-02-22T21:52:25.822Z,7.20
2023-02-22T21:54:53.876Z,7.20
2023-02-22T21:57:21.937Z,7.20
2023-02-22T21:59:53.430Z,7.20
2023-02-22T22:02:22.193Z,7.20
2023-02-22T22:04:59.069Z,7.20
2023-02-22T22:07:33.366Z,7.20
2023-02-22T22:10:10.707Z,7.20
2023-02-22T22:12:42.094Z,7.20
2023-02-22T22:15:11.033Z,7.10
2023-02-22T22:17:39.130Z,7.10
2023-02-22T22:20:11.916Z,7.10
2023-02-22T22:22:41.628Z,7.10
2023-02-22T22:25:12.573Z,7.10
2023-02-22T22:27:41.695Z,7.10
2023-02-22T22:30:13.761Z,7.00
2023-02-22T22:32:41.966Z,6.90
2023-02-22T22:35:14.819Z,6.90
2023-02-22T22:37:43.699Z,6.90
2023-02-22T22:40:15.909Z,6.90
2023-02-22T22:42:45.336Z,6.80
2023-02-22T22:45:18.167Z,6.80
2023-02-22T22:47:46.789Z,6.80
2023-02-22T22:50:19.842Z,6.80
2023-02-22T22:52:48.992Z,6.80
2023-02-22T22:55:19.036Z,6.80
2023-02-22T22:57:47.377Z,6.80
2023-02-22T23:00:32.435Z,6.70
2023-02-22T23:03:00.629Z,6.70
2023-02-22T23:05:30.366Z,6.70
2023-02-22T23:08:04.971Z,6.70
2023-02-22T23:10:39.475Z,6.60
2023-02-22T23:13:10.549Z,6.60
2023-02-22T23:15:43.170Z,6.40
2023-02-22T23:18:15.445Z,6.50
2023-02-22T23:20:44.925Z,6.40
2023-02-22T23:23:14.839Z,6.30
2023-02-22T23:25:43.123Z,6.30
2023-02-22T23:28:14.785Z,6.20
2023-02-22T23:30:46.794Z,6.20
2023-02-22T23:33:15.627Z,6.20
2023-02-22T23:35:50.595Z,6.20
2023-02-22T23:38:18.609Z,6.20
2023-02-22T23:40:46.841Z,6.30
2023-02-22T23:43:17.048Z,6.30
2023-02-22T23:45:47.849Z,6.30
2023-02-22T23:48:20.369Z,6.30
2023-02-22T23:50:51.261Z,6.20
2023-02-22T23:53:19.700Z,6.10
2023-02-22T23:55:47.808Z,6.00
2023-02-22T23:58:15.865Z,5.90
